sensor_id;sensor_type;location;lat;lon;timestamp;P1;durP1;ratioP1;P2;durP2;ratioP2
66830;SDS011;53739;44.224;22.528;2023-02-28T00:00:19;270.85;;;137.38;;
66830;SDS011;53739;44.224;22.528;2023-02-28T00:02:46;131.48;;;74.72;;
66830;SDS011;53739;44.224;22.528;2023-02-28T00:05:13;123.50;;;70.72;;
66830;SDS011;53739;44.224;22.528;2023-02-28T00:07:41;103.80;;;61.22;;
66830;SDS011;53739;44.224;22.528;2023-02-28T00:10:08;104.10;;;62.10;;
66830;SDS011;53739;44.224;22.528;2023-02-28T00:12:36;93.72;;;51.80;;
66830;SDS011;53739;44.224;22.528;2023-02-28T00:15:06;80.25;;;46.30;;
66830;SDS011;53739;44.224;22.528;2023-02-28T00:17:34;60.25;;;34.85;;
66830;SDS011;53739;44.224;22.528;2023-02-28T00:20:00;100.30;;;56.45;;
66830;SDS011;53739;44.224;22.528;2023-02-28T00:22:29;89.85;;;48.75;;
66830;SDS011;53739;44.224;22.528;2023-02-28T00:24:55;81.10;;;47.45;;
66830;SDS011;53739;44.224;22.528;2023-02-28T00:27:21;75.25;;;44.85;;
66830;SDS011;53739;44.224;22.528;2023-02-28T00:29:47;74.03;;;44.85;;
66830;SDS011;53739;44.224;22.528;2023-02-28T00:32:12;77.63;;;46.20;;
66830;SDS011;53739;44.224;22.528;2023-02-28T00:34:38;88.65;;;47.40;;
66830;SDS011;53739;44.224;22.528;2023-02-28T00:37:05;424.73;;;183.18;;
66830;SDS011;53739;44.224;22.528;2023-02-28T00:39:36;295.50;;;122.75;;
66830;SDS011;53739;44.224;22.528;2023-02-28T00:42:02;131.63;;;63.15;;
66830;SDS011;53739;44.224;22.528;2023-02-28T00:44:29;164.13;;;82.18;;
66830;SDS011;53739;44.224;22.528;2023-02-28T00:46:55;331.40;;;151.98;;
66830;SDS011;53739;44.224;22.528;2023-02-28T00:49:22;235.38;;;121.55;;
66830;SDS011;53739;44.224;22.528;2023-02-28T00:51:48;161.88;;;88.63;;
66830;SDS011;53739;44.224;22.528;2023-02-28T00:54:15;140.88;;;78.65;;
66830;SDS011;53739;44.224;22.528;2023-02-28T00:56:41;153.00;;;85.22;;
66830;SDS011;53739;44.224;22.528;2023-02-28T00:59:07;143.00;;;78.38;;
66830;SDS011;53739;44.224;22.528;2023-02-28T01:01:33;120.75;;;64.97;;
66830;SDS011;53739;44.224;22.528;2023-02-28T01:03:59;119.40;;;63.25;;
66830;SDS011;53739;44.224;22.528;2023-02-28T01:06:25;143.20;;;79.65;;
66830;SDS011;53739;44.224;22.528;2023-02-28T01:08:50;168.23;;;91.65;;
66830;SDS011;53739;44.224;22.528;2023-02-28T01:11:16;158.55;;;91.20;;
66830;SDS011;53739;44.224;22.528;2023-02-28T01:13:44;188.25;;;107.07;;
66830;SDS011;53739;44.224;22.528;2023-02-28T01:16:11;263.50;;;147.00;;
66830;SDS011;53739;44.224;22.528;2023-02-28T01:18:37;172.60;;;102.82;;
66830;SDS011;53739;44.224;22.528;2023-02-28T01:21:04;203.57;;;111.40;;
66830;SDS011;53739;44.224;22.528;2023-02-28T01:23:31;401.55;;;201.77;;
66830;SDS011;53739;44.224;22.528;2023-02-28T01:25:58;506.35;;;278.13;;
66830;SDS011;53739;44.224;22.528;2023-02-28T01:28:32;284.33;;;146.93;;
66830;SDS011;53739;44.224;22.528;2023-02-28T01:30:57;316.55;;;169.10;;
66830;SDS011;53739;44.224;22.528;2023-02-28T01:33:24;254.85;;;132.90;;
66830;SDS011;53739;44.224;22.528;2023-02-28T01:35:56;210.63;;;109.80;;
66830;SDS011;53739;44.224;22.528;2023-02-28T01:38:26;194.38;;;105.53;;
66830;SDS011;53739;44.224;22.528;2023-02-28T01:40:52;241.52;;;125.55;;
66830;SDS011;53739;44.224;22.528;2023-02-28T01:43:21;204.05;;;109.68;;
66830;SDS011;53739;44.224;22.528;2023-02-28T01:45:48;176.05;;;95.72;;
66830;SDS011;53739;44.224;22.528;2023-02-28T01:48:14;157.50;;;86.07;;
66830;SDS011;53739;44.224;22.528;2023-02-28T01:50:41;164.85;;;91.20;;
66830;SDS011;53739;44.224;22.528;2023-02-28T01:53:14;177.73;;;94.53;;
66830;SDS011;53739;44.224;22.528;2023-02-28T01:55:45;157.60;;;83.00;;
66830;SDS011;53739;44.224;22.528;2023-02-28T01:58:14;115.63;;;63.83;;
66830;SDS011;53739;44.224;22.528;2023-02-28T02:00:40;138.23;;;73.85;;
66830;SDS011;53739;44.224;22.528;2023-02-28T02:03:11;147.40;;;78.82;;
66830;SDS011;53739;44.224;22.528;2023-02-28T02:05:39;210.35;;;114.38;;
66830;SDS011;53739;44.224;22.528;2023-02-28T02:08:28;246.20;;;139.50;;
66830;SDS011;53739;44.224;22.528;2023-02-28T02:10:57;102.53;;;61.95;;
66830;SDS011;53739;44.224;22.528;2023-02-28T02:17:16;106.32;;;58.47;;
66830;SDS011;53739;44.224;22.528;2023-02-28T02:19:44;100.45;;;55.20;;
66830;SDS011;53739;44.224;22.528;2023-02-28T02:25:18;116.70;;;66.20;;
66830;SDS011;53739;44.224;22.528;2023-02-28T02:33:26;121.75;;;71.50;;
66830;SDS011;53739;44.224;22.528;2023-02-28T02:38:47;80.72;;;46.33;;
66830;SDS011;53739;44.224;22.528;2023-02-28T02:46:45;76.40;;;44.20;;
66830;SDS011;53739;44.224;22.528;2023-02-28T02:49:21;90.53;;;50.13;;
66830;SDS011;53739;44.224;22.528;2023-02-28T02:51:56;86.97;;;49.28;;
66830;SDS011;53739;44.224;22.528;2023-02-28T02:54:36;77.15;;;44.33;;
66830;SDS011;53739;44.224;22.528;2023-02-28T02:57:51;76.45;;;40.97;;
66830;SDS011;53739;44.224;22.528;2023-02-28T02:59:57;97.32;;;49.28;;
66830;SDS011;53739;44.224;22.528;2023-02-28T03:02:23;85.35;;;49.55;;
66830;SDS011;53739;44.224;22.528;2023-02-28T03:04:57;78.55;;;43.97;;
66830;SDS011;53739;44.224;22.528;2023-02-28T03:07:26;72.72;;;40.03;;
66830;SDS011;53739;44.224;22.528;2023-02-28T03:09:53;74.25;;;40.10;;
66830;SDS011;53739;44.224;22.528;2023-02-28T03:12:20;77.88;;;42.08;;
66830;SDS011;53739;44.224;22.528;2023-02-28T03:20:35;83.68;;;43.83;;
66830;SDS011;53739;44.224;22.528;2023-02-28T03:23:18;101.90;;;51.75;;
66830;SDS011;53739;44.224;22.528;2023-02-28T03:29:08;152.23;;;71.63;;
66830;SDS011;53739;44.224;22.528;2023-02-28T03:31:32;191.02;;;81.18;;
66830;SDS011;53739;44.224;22.528;2023-02-28T03:34:38;115.45;;;55.03;;
66830;SDS011;53739;44.224;22.528;2023-02-28T03:37:05;140.85;;;64.22;;
66830;SDS011;53739;44.224;22.528;2023-02-28T03:39:37;104.97;;;53.78;;
66830;SDS011;53739;44.224;22.528;2023-02-28T03:42:29;112.30;;;57.10;;
66830;SDS011;53739;44.224;22.528;2023-02-28T03:45:21;107.28;;;51.10;;
66830;SDS011;53739;44.224;22.528;2023-02-28T03:47:52;90.38;;;49.42;;
66830;SDS011;53739;44.224;22.528;2023-02-28T03:50:23;107.03;;;56.42;;
66830;SDS011;53739;44.224;22.528;2023-02-28T03:53:01;99.07;;;55.75;;
66830;SDS011;53739;44.224;22.528;2023-02-28T04:01:07;135.88;;;66.07;;
66830;SDS011;53739;44.224;22.528;2023-02-28T04:03:37;111.50;;;58.40;;
66830;SDS011;53739;44.224;22.528;2023-02-28T04:06:04;110.57;;;56.90;;
66830;SDS011;53739;44.224;22.528;2023-02-28T04:08:32;96.07;;;54.22;;
66830;SDS011;53739;44.224;22.528;2023-02-28T04:11:41;92.97;;;53.92;;
66830;SDS011;53739;44.224;22.528;2023-02-28T04:13:47;91.07;;;49.42;;
66830;SDS011;53739;44.224;22.528;2023-02-28T04:16:13;78.15;;;45.90;;
66830;SDS011;53739;44.224;22.528;2023-02-28T04:18:39;85.05;;;49.53;;
66830;SDS011;53739;44.224;22.528;2023-02-28T04:21:06;94.40;;;49.60;;
66830;SDS011;53739;44.224;22.528;2023-02-28T04:23:32;91.25;;;52.55;;
66830;SDS011;53739;44.224;22.528;2023-02-28T04:25:58;94.45;;;53.83;;
66830;SDS011;53739;44.224;22.528;2023-02-28T04:28:24;98.32;;;56.53;;
66830;SDS011;53739;44.224;22.528;2023-02-28T04:30:55;92.00;;;51.13;;
66830;SDS011;53739;44.224;22.528;2023-02-28T04:33:25;87.85;;;47.80;;
66830;SDS011;53739;44.224;22.528;2023-02-28T04:38:27;161.18;;;110.28;;
66830;SDS011;53739;44.224;22.528;2023-02-28T04:40:56;102.80;;;54.38;;
66830;SDS011;53739;44.224;22.528;2023-02-28T04:43:22;121.20;;;67.93;;
66830;SDS011;53739;44.224;22.528;2023-02-28T04:45:48;100.90;;;56.80;;
66830;SDS011;53739;44.224;22.528;2023-02-28T04:48:13;91.88;;;52.78;;
66830;SDS011;53739;44.224;22.528;2023-02-28T04:50:39;90.70;;;52.33;;
66830;SDS011;53739;44.224;22.528;2023-02-28T04:53:05;93.28;;;52.83;;
66830;SDS011;53739;44.224;22.528;2023-02-28T04:55:30;86.72;;;50.25;;
66830;SDS011;53739;44.224;22.528;2023-02-28T04:57:56;88.90;;;49.40;;
66830;SDS011;53739;44.224;22.528;2023-02-28T05:00:22;78.72;;;42.40;;
66830;SDS011;53739;44.224;22.528;2023-02-28T05:02:48;67.78;;;34.67;;
66830;SDS011;53739;44.224;22.528;2023-02-28T05:05:14;63.13;;;33.90;;
66830;SDS011;53739;44.224;22.528;2023-02-28T05:07:43;75.15;;;36.65;;
66830;SDS011;53739;44.224;22.528;2023-02-28T05:10:09;88.60;;;40.72;;
66830;SDS011;53739;44.224;22.528;2023-02-28T05:12:36;88.38;;;45.25;;
66830;SDS011;53739;44.224;22.528;2023-02-28T05:15:02;101.70;;;51.88;;
66830;SDS011;53739;44.224;22.528;2023-02-28T05:17:29;141.23;;;77.75;;
66830;SDS011;53739;44.224;22.528;2023-02-28T05:19:55;99.03;;;43.35;;
66830;SDS011;53739;44.224;22.528;2023-02-28T05:22:21;109.93;;;52.53;;
66830;SDS011;53739;44.224;22.528;2023-02-28T05:24:47;95.07;;;47.30;;
66830;SDS011;53739;44.224;22.528;2023-02-28T05:27:13;86.75;;;42.78;;
66830;SDS011;53739;44.224;22.528;2023-02-28T05:29:38;79.85;;;42.35;;
66830;SDS011;53739;44.224;22.528;2023-02-28T05:32:11;89.03;;;46.53;;
66830;SDS011;53739;44.224;22.528;2023-02-28T05:34:40;91.43;;;47.08;;
66830;SDS011;53739;44.224;22.528;2023-02-28T05:37:09;109.35;;;54.72;;
66830;SDS011;53739;44.224;22.528;2023-02-28T05:39:37;96.72;;;51.20;;
66830;SDS011;53739;44.224;22.528;2023-02-28T05:42:03;88.18;;;46.80;;
66830;SDS011;53739;44.224;22.528;2023-02-28T05:44:29;98.75;;;52.92;;
66830;SDS011;53739;44.224;22.528;2023-02-28T05:46:55;135.00;;;69.72;;
66830;SDS011;53739;44.224;22.528;2023-02-28T05:49:21;112.03;;;61.22;;
66830;SDS011;53739;44.224;22.528;2023-02-28T05:51:47;97.15;;;51.90;;
66830;SDS011;53739;44.224;22.528;2023-02-28T05:54:12;109.47;;;58.10;;
66830;SDS011;53739;44.224;22.528;2023-02-28T05:56:38;94.35;;;51.38;;
66830;SDS011;53739;44.224;22.528;2023-02-28T05:59:05;87.85;;;49.72;;
66830;SDS011;53739;44.224;22.528;2023-02-28T06:01:33;96.88;;;49.53;;
66830;SDS011;53739;44.224;22.528;2023-02-28T06:04:05;105.13;;;53.05;;
66830;SDS011;53739;44.224;22.528;2023-02-28T06:06:33;99.03;;;52.97;;
66830;SDS011;53739;44.224;22.528;2023-02-28T06:08:59;106.13;;;52.42;;
66830;SDS011;53739;44.224;22.528;2023-02-28T06:11:26;113.00;;;60.75;;
66830;SDS011;53739;44.224;22.528;2023-02-28T06:13:53;138.45;;;70.30;;
66830;SDS011;53739;44.224;22.528;2023-02-28T06:16:20;117.07;;;59.70;;
66830;SDS011;53739;44.224;22.528;2023-02-28T06:18:46;105.70;;;56.17;;
66830;SDS011;53739;44.224;22.528;2023-02-28T06:21:12;96.25;;;51.88;;
66830;SDS011;53739;44.224;22.528;2023-02-28T06:23:38;80.38;;;43.80;;
66830;SDS011;53739;44.224;22.528;2023-02-28T06:26:04;79.57;;;45.03;;
66830;SDS011;53739;44.224;22.528;2023-02-28T06:28:30;74.60;;;41.25;;
66830;SDS011;53739;44.224;22.528;2023-02-28T06:30:56;79.13;;;47.63;;
66830;SDS011;53739;44.224;22.528;2023-02-28T06:33:21;78.82;;;44.35;;
66830;SDS011;53739;44.224;22.528;2023-02-28T06:35:49;64.07;;;39.83;;
66830;SDS011;53739;44.224;22.528;2023-02-28T06:38:16;62.83;;;40.25;;
66830;SDS011;53739;44.224;22.528;2023-02-28T06:40:43;72.15;;;40.13;;
66830;SDS011;53739;44.224;22.528;2023-02-28T06:43:09;60.58;;;35.90;;
66830;SDS011;53739;44.224;22.528;2023-02-28T06:45:41;73.78;;;42.25;;
66830;SDS011;53739;44.224;22.528;2023-02-28T06:48:08;70.53;;;41.03;;
66830;SDS011;53739;44.224;22.528;2023-02-28T06:50:35;78.05;;;45.72;;
66830;SDS011;53739;44.224;22.528;2023-02-28T06:53:01;83.85;;;51.00;;
66830;SDS011;53739;44.224;22.528;2023-02-28T06:55:27;82.90;;;50.10;;
66830;SDS011;53739;44.224;22.528;2023-02-28T06:57:53;89.45;;;56.65;;
66830;SDS011;53739;44.224;22.528;2023-02-28T07:00:20;76.35;;;45.63;;
66830;SDS011;53739;44.224;22.528;2023-02-28T07:02:45;63.75;;;38.85;;
66830;SDS011;53739;44.224;22.528;2023-02-28T07:05:12;70.22;;;43.80;;
66830;SDS011;53739;44.224;22.528;2023-02-28T07:07:38;59.42;;;36.60;;
66830;SDS011;53739;44.224;22.528;2023-02-28T07:10:08;63.72;;;39.58;;
66830;SDS011;53739;44.224;22.528;2023-02-28T07:12:38;49.70;;;33.85;;
66830;SDS011;53739;44.224;22.528;2023-02-28T07:15:04;43.90;;;28.83;;
66830;SDS011;53739;44.224;22.528;2023-02-28T07:17:30;49.70;;;30.73;;
66830;SDS011;53739;44.224;22.528;2023-02-28T07:19:56;45.72;;;30.25;;
66830;SDS011;53739;44.224;22.528;2023-02-28T07:22:22;57.25;;;40.08;;
66830;SDS011;53739;44.224;22.528;2023-02-28T07:24:48;60.88;;;39.63;;
66830;SDS011;53739;44.224;22.528;2023-02-28T07:27:13;52.95;;;32.35;;
66830;SDS011;53739;44.224;22.528;2023-02-28T07:29:48;45.80;;;30.08;;
66830;SDS011;53739;44.224;22.528;2023-02-28T07:32:14;63.20;;;40.53;;
66830;SDS011;53739;44.224;22.528;2023-02-28T07:34:40;59.78;;;39.72;;
66830;SDS011;53739;44.224;22.528;2023-02-28T07:37:06;51.40;;;34.65;;
66830;SDS011;53739;44.224;22.528;2023-02-28T07:39:32;62.70;;;41.53;;
66830;SDS011;53739;44.224;22.528;2023-02-28T07:41:58;70.53;;;46.45;;
66830;SDS011;53739;44.224;22.528;2023-02-28T07:44:25;71.55;;;50.15;;
66830;SDS011;53739;44.224;22.528;2023-02-28T07:46:51;50.22;;;36.95;;
66830;SDS011;53739;44.224;22.528;2023-02-28T07:49:17;57.05;;;39.70;;
66830;SDS011;53739;44.224;22.528;2023-02-28T07:51:43;65.68;;;44.60;;
66830;SDS011;53739;44.224;22.528;2023-02-28T07:54:09;69.85;;;45.55;;
66830;SDS011;53739;44.224;22.528;2023-02-28T07:56:35;121.25;;;76.68;;
66830;SDS011;53739;44.224;22.528;2023-02-28T07:59:01;118.18;;;73.75;;
66830;SDS011;53739;44.224;22.528;2023-02-28T08:01:26;97.80;;;65.13;;
66830;SDS011;53739;44.224;22.528;2023-02-28T08:03:52;80.13;;;52.28;;
66830;SDS011;53739;44.224;22.528;2023-02-28T08:06:20;112.50;;;72.60;;
66830;SDS011;53739;44.224;22.528;2023-02-28T08:08:48;101.40;;;63.55;;
66830;SDS011;53739;44.224;22.528;2023-02-28T08:11:14;75.75;;;50.05;;
66830;SDS011;53739;44.224;22.528;2023-02-28T08:13:41;77.75;;;50.72;;
66830;SDS011;53739;44.224;22.528;2023-02-28T08:16:10;78.13;;;49.25;;
66830;SDS011;53739;44.224;22.528;2023-02-28T08:18:39;49.75;;;34.45;;
66830;SDS011;53739;44.224;22.528;2023-02-28T08:21:08;57.67;;;38.10;;
66830;SDS011;53739;44.224;22.528;2023-02-28T08:23:35;62.17;;;44.55;;
66830;SDS011;53739;44.224;22.528;2023-02-28T08:26:01;56.55;;;36.38;;
66830;SDS011;53739;44.224;22.528;2023-02-28T08:28:28;65.68;;;41.65;;
66830;SDS011;53739;44.224;22.528;2023-02-28T08:30:53;72.00;;;45.85;;
66830;SDS011;53739;44.224;22.528;2023-02-28T08:33:20;63.88;;;40.33;;
66830;SDS011;53739;44.224;22.528;2023-02-28T08:35:45;70.80;;;44.40;;
66830;SDS011;53739;44.224;22.528;2023-02-28T08:38:11;65.40;;;41.33;;
66830;SDS011;53739;44.224;22.528;2023-02-28T08:40:37;58.40;;;39.78;;
66830;SDS011;53739;44.224;22.528;2023-02-28T08:43:04;82.82;;;48.10;;
66830;SDS011;53739;44.224;22.528;2023-02-28T08:45:29;74.32;;;44.45;;
66830;SDS011;53739;44.224;22.528;2023-02-28T08:47:55;138.13;;;77.70;;
66830;SDS011;53739;44.224;22.528;2023-02-28T08:50:21;87.95;;;58.03;;
66830;SDS011;53739;44.224;22.528;2023-02-28T08:52:47;63.10;;;43.47;;
66830;SDS011;53739;44.224;22.528;2023-02-28T08:55:13;42.53;;;30.33;;
66830;SDS011;53739;44.224;22.528;2023-02-28T08:57:39;39.05;;;27.60;;
66830;SDS011;53739;44.224;22.528;2023-02-28T09:00:05;36.97;;;26.40;;
66830;SDS011;53739;44.224;22.528;2023-02-28T09:02:32;46.90;;;34.42;;
66830;SDS011;53739;44.224;22.528;2023-02-28T09:04:58;56.53;;;40.20;;
66830;SDS011;53739;44.224;22.528;2023-02-28T09:07:24;169.90;;;116.97;;
66830;SDS011;53739;44.224;22.528;2023-02-28T09:09:50;83.05;;;60.55;;
66830;SDS011;53739;44.224;22.528;2023-02-28T09:12:20;53.67;;;34.40;;
66830;SDS011;53739;44.224;22.528;2023-02-28T09:14:49;52.25;;;36.88;;
66830;SDS011;53739;44.224;22.528;2023-02-28T09:17:16;61.17;;;41.25;;
66830;SDS011;53739;44.224;22.528;2023-02-28T09:19:41;51.55;;;34.03;;
66830;SDS011;53739;44.224;22.528;2023-02-28T09:22:08;41.53;;;27.30;;
66830;SDS011;53739;44.224;22.528;2023-02-28T09:24:35;52.42;;;38.38;;
66830;SDS011;53739;44.224;22.528;2023-02-28T09:27:03;51.20;;;36.60;;
66830;SDS011;53739;44.224;22.528;2023-02-28T09:29:30;49.67;;;35.65;;
66830;SDS011;53739;44.224;22.528;2023-02-28T09:31:57;52.33;;;38.38;;
66830;SDS011;53739;44.224;22.528;2023-02-28T09:34:24;56.00;;;40.10;;
66830;SDS011;53739;44.224;22.528;2023-02-28T09:36:50;58.85;;;40.78;;
66830;SDS011;53739;44.224;22.528;2023-02-28T09:39:23;51.40;;;34.22;;
66830;SDS011;53739;44.224;22.528;2023-02-28T09:41:52;43.30;;;30.63;;
66830;SDS011;53739;44.224;22.528;2023-02-28T09:44:39;60.28;;;38.90;;
66830;SDS011;53739;44.224;22.528;2023-02-28T09:47:15;47.03;;;32.88;;
66830;SDS011;53739;44.224;22.528;2023-02-28T09:49:59;46.53;;;32.53;;
66830;SDS011;53739;44.224;22.528;2023-02-28T09:52:33;48.70;;;32.60;;
66830;SDS011;53739;44.224;22.528;2023-02-28T09:55:18;41.95;;;28.13;;
66830;SDS011;53739;44.224;22.528;2023-02-28T09:58:03;49.90;;;31.70;;
66830;SDS011;53739;44.224;22.528;2023-02-28T10:00:32;52.88;;;34.90;;
66830;SDS011;53739;44.224;22.528;2023-02-28T10:05:41;54.05;;;37.75;;
66830;SDS011;53739;44.224;22.528;2023-02-28T10:08:39;48.88;;;31.58;;
66830;SDS011;53739;44.224;22.528;2023-02-28T10:11:17;49.42;;;31.85;;
66830;SDS011;53739;44.224;22.528;2023-02-28T10:13:48;50.72;;;32.50;;
66830;SDS011;53739;44.224;22.528;2023-02-28T10:17:04;50.33;;;32.25;;
66830;SDS011;53739;44.224;22.528;2023-02-28T10:19:33;47.97;;;30.15;;
66830;SDS011;53739;44.224;22.528;2023-02-28T10:25:01;45.15;;;29.17;;
66830;SDS011;53739;44.224;22.528;2023-02-28T10:27:40;50.42;;;34.75;;
66830;SDS011;53739;44.224;22.528;2023-02-28T10:30:09;83.88;;;63.35;;
66830;SDS011;53739;44.224;22.528;2023-02-28T10:32:37;55.70;;;37.10;;
66830;SDS011;53739;44.224;22.528;2023-02-28T10:37:47;51.88;;;34.97;;
66830;SDS011;53739;44.224;22.528;2023-02-28T10:45:34;49.00;;;32.33;;
66830;SDS011;53739;44.224;22.528;2023-02-28T10:53:16;73.97;;;49.45;;
66830;SDS011;53739;44.224;22.528;2023-02-28T10:56:23;57.83;;;36.13;;
66830;SDS011;53739;44.224;22.528;2023-02-28T10:58:47;56.50;;;33.72;;
66830;SDS011;53739;44.224;22.528;2023-02-28T11:01:20;58.28;;;35.05;;
66830;SDS011;53739;44.224;22.528;2023-02-28T11:03:48;53.30;;;35.15;;
66830;SDS011;53739;44.224;22.528;2023-02-28T11:06:18;59.58;;;35.13;;
66830;SDS011;53739;44.224;22.528;2023-02-28T11:08:54;58.17;;;36.08;;
66830;SDS011;53739;44.224;22.528;2023-02-28T11:11:22;76.90;;;45.25;;
66830;SDS011;53739;44.224;22.528;2023-02-28T11:13:57;61.30;;;33.83;;
66830;SDS011;53739;44.224;22.528;2023-02-28T11:16:33;68.22;;;35.35;;
66830;SDS011;53739;44.224;22.528;2023-02-28T11:19:01;67.80;;;35.00;;
66830;SDS011;53739;44.224;22.528;2023-02-28T11:21:29;72.90;;;42.20;;
66830;SDS011;53739;44.224;22.528;2023-02-28T11:29:21;59.05;;;39.65;;
66830;SDS011;53739;44.224;22.528;2023-02-28T11:32:05;76.32;;;47.03;;
66830;SDS011;53739;44.224;22.528;2023-02-28T11:34:38;56.00;;;37.17;;
66830;SDS011;53739;44.224;22.528;2023-02-28T11:37:09;78.13;;;52.13;;
66830;SDS011;53739;44.224;22.528;2023-02-28T11:39:37;59.28;;;42.03;;
66830;SDS011;53739;44.224;22.528;2023-02-28T11:53:22;71.25;;;46.13;;
66830;SDS011;53739;44.224;22.528;2023-02-28T12:07:11;87.90;;;53.05;;
66830;SDS011;53739;44.224;22.528;2023-02-28T12:10:20;58.42;;;39.00;;
66830;SDS011;53739;44.224;22.528;2023-02-28T12:15:50;79.63;;;47.35;;
66830;SDS011;53739;44.224;22.528;2023-02-28T12:26:27;70.10;;;46.58;;
66830;SDS011;53739;44.224;22.528;2023-02-28T12:29:05;86.88;;;58.53;;
66830;SDS011;53739;44.224;22.528;2023-02-28T12:32:05;70.47;;;43.30;;
66830;SDS011;53739;44.224;22.528;2023-02-28T12:34:41;70.82;;;47.55;;
66830;SDS011;53739;44.224;22.528;2023-02-28T12:37:26;66.00;;;41.92;;
66830;SDS011;53739;44.224;22.528;2023-02-28T12:40:00;66.80;;;41.05;;
66830;SDS011;53739;44.224;22.528;2023-02-28T12:42:36;74.80;;;43.13;;
66830;SDS011;53739;44.224;22.528;2023-02-28T12:45:31;76.47;;;45.65;;
66830;SDS011;53739;44.224;22.528;2023-02-28T12:48:04;62.15;;;36.10;;
66830;SDS011;53739;44.224;22.528;2023-02-28T12:50:33;54.80;;;32.95;;
66830;SDS011;53739;44.224;22.528;2023-02-28T13:04:07;55.20;;;35.92;;
66830;SDS011;53739;44.224;22.528;2023-02-28T13:09:16;82.18;;;46.10;;
66830;SDS011;53739;44.224;22.528;2023-02-28T13:11:46;81.47;;;47.10;;
66830;SDS011;53739;44.224;22.528;2023-02-28T13:17:03;71.28;;;42.25;;
66830;SDS011;53739;44.224;22.528;2023-02-28T13:19:35;75.57;;;43.33;;
66830;SDS011;53739;44.224;22.528;2023-02-28T13:27:48;84.78;;;49.15;;
66830;SDS011;53739;44.224;22.528;2023-02-28T13:36:27;97.65;;;56.95;;
66830;SDS011;53739;44.224;22.528;2023-02-28T13:38:59;90.00;;;55.05;;
66830;SDS011;53739;44.224;22.528;2023-02-28T13:41:48;89.22;;;56.30;;
66830;SDS011;53739;44.224;22.528;2023-02-28T13:44:18;97.95;;;58.70;;
66830;SDS011;53739;44.224;22.528;2023-02-28T14:03:13;102.18;;;67.15;;
66830;SDS011;53739;44.224;22.528;2023-02-28T14:09:16;111.10;;;69.28;;
66830;SDS011;53739;44.224;22.528;2023-02-28T14:11:42;103.07;;;65.82;;
66830;SDS011;53739;44.224;22.528;2023-02-28T14:14:10;99.93;;;64.60;;
66830;SDS011;53739;44.224;22.528;2023-02-28T14:17:01;97.30;;;63.05;;
66830;SDS011;53739;44.224;22.528;2023-02-28T14:19:32;86.43;;;56.83;;
66830;SDS011;53739;44.224;22.528;2023-02-28T14:30:19;102.88;;;64.10;;
66830;SDS011;53739;44.224;22.528;2023-02-28T14:33:11;94.93;;;60.38;;
66830;SDS011;53739;44.224;22.528;2023-02-28T14:39:22;170.27;;;85.88;;
66830;SDS011;53739;44.224;22.528;2023-02-28T14:41:50;122.47;;;70.30;;
66830;SDS011;53739;44.224;22.528;2023-02-28T14:44:23;132.40;;;78.50;;
66830;SDS011;53739;44.224;22.528;2023-02-28T14:46:58;130.82;;;79.47;;
66830;SDS011;53739;44.224;22.528;2023-02-28T14:49:31;153.65;;;86.43;;
66830;SDS011;53739;44.224;22.528;2023-02-28T14:54:35;198.52;;;108.82;;
66830;SDS011;53739;44.224;22.528;2023-02-28T14:57:04;143.45;;;80.07;;
66830;SDS011;53739;44.224;22.528;2023-02-28T14:59:34;141.73;;;80.80;;
66830;SDS011;53739;44.224;22.528;2023-02-28T15:05:01;105.28;;;63.05;;
66830;SDS011;53739;44.224;22.528;2023-02-28T15:07:35;106.22;;;63.88;;
66830;SDS011;53739;44.224;22.528;2023-02-28T15:10:11;128.55;;;77.40;;
66830;SDS011;53739;44.224;22.528;2023-02-28T15:12:51;116.40;;;70.05;;
66830;SDS011;53739;44.224;22.528;2023-02-28T15:15:26;95.30;;;60.30;;
66830;SDS011;53739;44.224;22.528;2023-02-28T15:18:22;92.43;;;60.33;;
66830;SDS011;53739;44.224;22.528;2023-02-28T15:20:52;87.15;;;56.15;;
66830;SDS011;53739;44.224;22.528;2023-02-28T15:23:19;94.78;;;60.17;;
66830;SDS011;53739;44.224;22.528;2023-02-28T15:25:46;110.90;;;69.13;;
66830;SDS011;53739;44.224;22.528;2023-02-28T15:28:14;114.07;;;72.65;;
66830;SDS011;53739;44.224;22.528;2023-02-28T15:30:51;102.43;;;61.75;;
66830;SDS011;53739;44.224;22.528;2023-02-28T15:35:46;96.57;;;60.17;;
66830;SDS011;53739;44.224;22.528;2023-02-28T15:38:23;104.50;;;65.25;;
66830;SDS011;53739;44.224;22.528;2023-02-28T15:40:57;104.00;;;65.85;;
66830;SDS011;53739;44.224;22.528;2023-02-28T15:43:25;128.57;;;79.38;;
66830;SDS011;53739;44.224;22.528;2023-02-28T15:48:42;250.57;;;146.25;;
66830;SDS011;53739;44.224;22.528;2023-02-28T15:53:51;133.18;;;81.68;;
66830;SDS011;53739;44.224;22.528;2023-02-28T15:56:29;102.47;;;61.22;;
66830;SDS011;53739;44.224;22.528;2023-02-28T15:59:07;105.20;;;63.75;;
66830;SDS011;53739;44.224;22.528;2023-02-28T16:04:54;136.77;;;86.30;;
66830;SDS011;53739;44.224;22.528;2023-02-28T16:07:36;107.05;;;64.97;;
66830;SDS011;53739;44.224;22.528;2023-02-28T16:10:03;107.35;;;69.65;;
66830;SDS011;53739;44.224;22.528;2023-02-28T16:12:31;139.88;;;90.93;;
66830;SDS011;53739;44.224;22.528;2023-02-28T16:14:59;136.25;;;89.53;;
66830;SDS011;53739;44.224;22.528;2023-02-28T16:17:31;106.25;;;70.00;;
66830;SDS011;53739;44.224;22.528;2023-02-28T16:19:59;199.43;;;114.72;;
66830;SDS011;53739;44.224;22.528;2023-02-28T16:22:25;194.18;;;101.32;;
66830;SDS011;53739;44.224;22.528;2023-02-28T16:24:51;157.02;;;89.47;;
66830;SDS011;53739;44.224;22.528;2023-02-28T16:27:19;152.95;;;94.03;;
66830;SDS011;53739;44.224;22.528;2023-02-28T16:29:48;147.32;;;94.25;;
66830;SDS011;53739;44.224;22.528;2023-02-28T16:32:15;156.60;;;95.00;;
66830;SDS011;53739;44.224;22.528;2023-02-28T16:34:42;129.63;;;79.57;;
66830;SDS011;53739;44.224;22.528;2023-02-28T16:37:16;139.70;;;92.63;;
66830;SDS011;53739;44.224;22.528;2023-02-28T16:39:43;133.23;;;89.57;;
66830;SDS011;53739;44.224;22.528;2023-02-28T16:42:21;127.43;;;80.05;;
66830;SDS011;53739;44.224;22.528;2023-02-28T16:44:49;111.85;;;72.68;;
66830;SDS011;53739;44.224;22.528;2023-02-28T16:47:16;118.10;;;76.18;;
66830;SDS011;53739;44.224;22.528;2023-02-28T16:49:42;105.50;;;66.10;;
66830;SDS011;53739;44.224;22.528;2023-02-28T16:52:08;100.05;;;62.67;;
66830;SDS011;53739;44.224;22.528;2023-02-28T16:54:34;140.68;;;90.40;;
66830;SDS011;53739;44.224;22.528;2023-02-28T16:57:00;122.57;;;80.00;;
66830;SDS011;53739;44.224;22.528;2023-02-28T16:59:27;113.32;;;75.38;;
66830;SDS011;53739;44.224;22.528;2023-02-28T17:01:54;119.07;;;76.95;;
66830;SDS011;53739;44.224;22.528;2023-02-28T17:04:22;152.35;;;93.82;;
66830;SDS011;53739;44.224;22.528;2023-02-28T17:06:52;121.63;;;76.78;;
66830;SDS011;53739;44.224;22.528;2023-02-28T17:09:22;117.07;;;72.15;;
66830;SDS011;53739;44.224;22.528;2023-02-28T17:11:48;110.28;;;65.32;;